Semaine O'tomnale - Régionale Sprint Quimperlé centre ville (29) - D

Date : 01/11/2012
Distance : 1,000 km

Place Nom Licence Catégorie Club Temps min/km CN à J-60 Points Différence Nouveau CN
1 POIROT Delphine 15979 D18 8809LO 0:12:30 12'30 6577 4663 -1914 6743
2 DROIN Solène 17925 D16 4201RA 0:12:30 12'30 5692 4663 -1029 7630
3 HABERKORN Chloé 10396 D16 2105BO 0:13:20 13'20 6560 4371 -2189 6560
4 HANAUER Florence 20408 D14 6806AL 0:13:24 13'24 4729 4350 -379 4979
5 LOTERIE Laurine 7045 D20 5907NO 0:13:28 13'28 5953 4328 -1625 6018
6 VASILYEVA Véronika 25923 D16 5402LO 0:13:45 13'45 2848 4239 +1391 4032
7 CLOUARD Lucile 8551 D18 7807IF 0:13:47 13'47 6400 4229 -2171 6809
8 BERRARD Anna 19762 D16 2607RA 0:13:52 13'52 5004 4203 -801 5711
9 BORNARD Julie 9402 D16 7305RA 0:13:56 13'56 5220 4183 -1037 6136
10 KORCHAK Emilie 13639 D14 6806AL 0:14:06 14'06 4132 4134 +2 4277
11 BEAUVIR Maëlle 12709 D16 3502BR 0:14:10 14'10 5508 4114 -1394 6233
12 VALETTE Marion 10430 D16 6913RA 0:14:13 14'13 4501 4100 -401 5367
13 VUILLEMIN Pauline 17171 D14 2508FC 0:14:23 14'23 4036 4052 +16 4545
14 GIRARD Lucille 19689 D16 3705CE 0:14:28 14'28 5502 4029 -1473 5796
15 DELENNE Camilla 13800 D16 1307PR 0:14:44 14'44 4640 3956 -684 5381
16 BONDIVENNE Perrine 8914 D16 6408AQ 0:14:44 14'44 5652 3956 -1696 5652
17 DEJARDIN Emilie 10863 D18 1307PR 0:14:50 14'50 4448 3929 -519 4283
18 DUDOIGNON Chloé 18089 D14 2605RA 0:14:56 14'56 4004 3903 -101 5039
19 ALAFORT Lucie 22475 D18 5116CA 0:15:04 15'04 3431 3869 +438 4117
20 BASSET Juliette 12398 D14 6911RA 0:15:08 15'08 4528 3851 -677 5262
21 PICAZO Marie 16555 D16 8405PR 0:15:11 15'11 4857 3839 -1018 5210
22 STARKE Paula 26505 D16 6913RA 0:15:16 15'16 3818 5327
23 DOUSSET Mathilde 20731 D14 4709AQ 0:15:18 15'18 3514 3810 +296 3865
24 ANGLADE Lucile 21188 D16 5604BR 0:15:23 15'23 4379 3789 -590 4474
25 MOLINIER Caroline 6487 D16 9105IF 0:15:28 15'28 4246 3768 -478 4323
26 RIVOLLIER Isaline 22451 D16 4201RA 0:15:34 15'34 4550 3744 -806 5051
27 GIRARD Clarisse 22476 D14 2508FC 0:16:12 16'12 3397 3598 +201 3736
28 VUITTON Marie 18842 D14 6911RA 0:16:15 16'15 4750 3587 -1163 5505
29 ALLE Capucine 25922 D16 5402LO 0:16:16 16'16 1252 3583 +2331 2796
30 CRETE Camille 18828 D18 6008PI 0:16:19 16'19 3821 3572 -249 4300
31 GUILLOT Jeanne 20364 D16 7004FC 0:16:24 16'24 3263 3554 +291 3432
32 KASTENSSON Hedda 20616 D14 0615AZ 0:16:29 16'29 3266 3536 +270 3631
33 CRETE Juliette 18829 D16 6008PI 0:16:29 16'29 3183 3536 +353 4160
34 LUTHRINGER Coline 10091 D16 8809LO 0:16:33 16'33 4894 3522 -1372 4934
35 SOUAN Cécile 26423 D16 7707IF 0:16:34 16'34 2262 3518 +1256 3142
36 BUCAMP Noémie 25200 D16 6008PI 0:16:38 16'38 2088 3504 +1416 3346
37 LEVESY Salomé 23127 D14 3810RA 0:16:39 16'39 2822 3501 +679 3258
38 VERDIN Alix 15276 D18 7109BO 0:16:42 16'42 3852 3490 -362 3796
39 CONIEL Laura 14887 D14 5604BR 0:16:45 16'45 3600 3480 -120 3775
40 MORLON Louise 7788 D18 5702LO 0:16:48 16'48 4175 3469 -706 4227
41 DELAPORTE Léa 20067 D16 5116CA 0:16:54 16'54 3285 3449 +164 4005
42 DELENNE Joanna 17030 D14 1307PR 0:16:54 16'54 3098 3449 +351 3596
43 BESTEL Sandra 10758 D16 9105IF 0:16:54 16'54 4077 3449 -628 4481
44 DENAIX Lou 7711 D20 7403RA 0:16:57 16'57 5837 3439 -2398 6099
45 ELIAS Pauline 16137 D16 1307PR 0:17:03 17'03 3981 3419 -562 4477
46 DODIER Orianne 10485 D18 8405PR 0:17:27 17'27 4626 3340 -1286 4662
47 GONNEAUD Perrine 11385 D18 7109BO 0:18:01 18'01 3496 3235 -261 3844
48 DEMESSANCE Annaik 25595 D18 6008PI 0:18:05 18'05 2763 3223 +460 3391
49 SERPE Milena 24816 D14 0207PI 0:18:09 18'09 1856 3211 +1355 3326
50 KASTENSSON Ellen 20484 D18 0615AZ 0:18:11 18'11 4631 3205 -1426 4655
51 JEANNERET Julie 20160 D16 7109BO 0:18:12 18'12 2256 3203 +947 2947
52 FIGUIERE Lucile 10087 D16 7109BO 0:18:13 18'13 2908 3200 +292 3564
53 BASSET Fiona 23384 D16 6911RA 0:18:21 18'21 5135 3176 -1959 5669
54 GREBEL Louise 12587 D14 7305RA 0:18:24 18'24 2416 3168 +752 2480
55 FOL Loreline 16393 D16 3105MP 0:18:28 18'28 4599 3156 -1443 4949
56 DUDOUT Malaurine 24516 D16 2704NM 0:18:29 18'29 2523 3153 +630 3913
57 GUINOT Marion 15018 D16 2108BO 0:18:31 18'31 3738 3148 -590 4283
58 DASILVA Auriane 12758 D16 7707IF 0:18:31 18'31 2605 3148 +543 3007
59 BELLE Clémence 24444 D14 6205NO 0:18:45 18'45 2605 3109 +504 3228
60 CHABANCE Lucile 23077 D14 4201RA 0:18:57 18'57 3076 2709
61 DESCOURVIERES Perrine 25550 D16 7407RA 0:19:03 19'03 2150 3060 +910 2667
62 DUVAL Manon 25002 D14 0207PI 0:19:05 19'05 2029 3054 +1025 3087
63 VOLPATO Suzelle 18968 D14 4709AQ 0:19:14 19'14 2977 3030 +53 3052
64 ROUX Angéle 25238 D16 4201RA 0:19:23 19'23 3007 1801
65 COMMERE Justine 23511 D14 6008PI 0:19:23 19'23 2432 3007 +575 2757
66 DUDOUT Loane 25953 D14 2704NM 0:20:02 20'02 1691 2909 +1218 3025
67 VANOVERBERGHE Camille 21323 D18 6208NO 0:20:02 20'02 5015 2909 -2106 5085
68 VANOVERBERGHE Mathilde 22238 D14 6208NO 0:20:38 20'38 2216 2825 +609 2676
69 GRENEY Diane 25277 D14 6804AL 0:20:41 20'41 2466 2818 +352 3053
70 GRESSIER Léa 24242 D14 6208NO 0:20:48 20'48 1317 2802 +1485 2509
71 MOREL Fanny 25556 D16 9502IF 0:21:19 21'19 1877 2734 +857 2348
72 BULLIER Alisson 23427 D16 0207PI 0:21:25 21'25 2720 2722 +2 3458
73 BASSET Noëllie 24039 D14 6911RA 0:22:23 22'23 2062 2604 +542 2284
74 DUFOUR Marie 26623 D16 7407RA 0:22:24 22'24 2602 2395
75 PERREARD-GARIN Soraya 25343 D14 7407RA 0:22:54 22'54 2027 2545 +518 2460
76 MORIN Laura 23391 D18 2208BR 0:23:11 23'11 2312 2514 +202 2919
77 DUPONT Capucine 26535 D14 0207PI 0:24:22 24'22 0 2392 2314
78 MOUGENOT LEA 25662 D16 6503MP 0:25:46 25'46 2262 2064
79 GARAT Frédérique 25929 D21 5909NO 0:25:51 25'51 2255 2125
80 GUENIN Justine 16949 D14 5116CA 0:26:15 26'15 2475 2220 -255 2886
81 FIGARD Cécile 26475 D16 7707IF 0:26:18 26'18 0 2216 2028
82 DIDIER Marion 19566 D14 7305RA 0:27:19 27'19 3078 2134 -944 3699
83 DELCUSE Julie 23595 D14 6205NO 0:27:22 27'22 2643 2130 -513 3330
84 DELVA Lou 26620 D16 7407RA 0:28:42 28'42 2031 2454
85 PEROUCHET Rachel 26410 D14 8607PC 0:36:30 36'30 1597 1629
HUMMEL-AZAIS Margaux 18432 D18 7403RA abandon None 6435 0 6435
MORIN Lucie 23393 D16 2208BR abandon None 1637 0 1637
PETER-JAN Lucile 19276 D16 3705CE pm None 5024 0 5157
BEYLS Mathilde 19269 D14 0615AZ pm None 2962 0 3253
LABROCHE Claire 26570 D14 0207PI disqualifié None 0 0 1743